Time;durP1;ratioP1;P1;durP2;ratioP2;P2;SDS_P1;SDS_P2;PMS_P1;PMS_P2;Temp;Humidity;BMP_temperature;BMP_pressure;BME280_temperature;BME280_humidity;BME280_pressure;Samples;Min_cycle;Max_cycle;Signal;HPM_P1;HPM_P2
2022/02/08 00:01:02;;;;;;;8.73;2.33;;;7.20;58.00;;;;;;5111275;28;20430;-66
2022/02/08 00:03:28;;;;;;;9.05;2.20;;;7.20;57.90;;;;;;5119049;27;20482;-63
2022/02/08 00:06:07;;;;;;;7.55;2.20;;;7.20;58.10;;;;;;5112475;28;20288;-61
2022/02/08 00:08:33;;;;;;;7.57;2.30;;;7.20;58.00;;;;;;5113249;28;20023;-62
2022/02/08 00:10:59;;;;;;;5.35;1.75;;;7.20;58.30;;;;;;5108545;28;20081;-61
2022/02/08 00:13:25;;;;;;;8.63;2.58;;;7.20;58.50;;;;;;5111849;27;20020;-61
2022/02/08 00:15:50;;;;;;;6.47;1.80;;;7.30;58.50;;;;;;5113363;27;20103;-62
2022/02/08 00:18:16;;;;;;;10.30;2.30;;;7.30;58.60;;;;;;5107712;27;20033;-62
2022/02/08 00:20:42;;;;;;;6.07;1.75;;;7.30;58.50;;;;;;5100476;28;20044;-62
2022/02/08 00:23:07;;;;;;;5.85;1.85;;;7.30;58.70;;;;;;5098973;27;20476;-61
2022/02/08 00:25:33;;;;;;;5.78;2.22;;;7.30;58.70;;;;;;5118979;27;20027;-61
2022/02/08 00:27:59;;;;;;;10.50;2.40;;;7.30;58.80;;;;;;5097732;27;20484;-61
2022/02/08 00:30:24;;;;;;;9.52;2.75;;;7.30;59.00;;;;;;5111014;27;20028;-62
2022/02/08 00:32:50;;;;;;;10.02;2.47;;;7.40;59.00;;;;;;5109971;28;20035;-63
2022/02/08 00:35:16;;;;;;;9.70;2.90;;;7.40;59.20;;;;;;5112703;27;20028;-62
2022/02/08 00:37:42;;;;;;;11.73;2.50;;;7.30;59.30;;;;;;5115802;27;20032;-62
2022/02/08 00:40:08;;;;;;;11.60;2.90;;;7.30;59.30;;;;;;5110851;28;20031;-62
2022/02/08 00:42:35;;;;;;;15.23;2.67;;;7.40;59.30;;;;;;5112665;27;20034;-62
2022/02/08 00:47:53;;;;;;;13.70;2.78;;;7.40;58.70;;;;;;5115190;27;20053;-61
2022/02/08 00:50:20;;;;;;;8.45;2.40;;;7.50;58.60;;;;;;5110930;28;20177;-62
2022/02/08 00:52:45;;;;;;;7.68;2.20;;;7.50;58.40;;;;;;5120139;27;20530;-61
2022/02/08 00:55:12;;;;;;;11.98;2.92;;;7.40;58.20;;;;;;5114562;27;20102;-62
2022/02/08 00:57:38;;;;;;;8.82;2.38;;;7.30;58.30;;;;;;5121396;27;20079;-61
2022/02/08 01:00:07;;;;;;;8.02;2.55;;;7.30;58.50;;;;;;5120429;27;20023;-61
2022/02/08 01:02:33;;;;;;;12.10;2.80;;;7.30;58.30;;;;;;5117375;27;20036;-61
2022/02/08 01:05:02;;;;;;;9.98;2.55;;;7.40;58.10;;;;;;5113475;27;20285;-61
2022/02/08 01:07:46;;;;;;;10.57;3.05;;;7.40;57.90;;;;;;5108438;28;20060;-61
2022/02/08 01:10:12;;;;;;;8.35;2.20;;;7.30;57.50;;;;;;5118652;27;20069;-61
2022/02/08 01:12:38;;;;;;;8.80;2.53;;;7.30;57.30;;;;;;5114267;27;20059;-62
2022/02/08 01:15:06;;;;;;;10.80;2.35;;;7.40;57.30;;;;;;5110148;28;20462;-63
2022/02/08 01:17:31;;;;;;;8.25;1.80;;;7.40;57.40;;;;;;5105600;28;20031;-61
2022/02/08 01:22:23;;;;;;;8.82;2.20;;;7.40;57.20;;;;;;5104938;28;20473;-62
2022/02/08 01:24:50;;;;;;;8.60;2.28;;;7.40;57.20;;;;;;5098749;28;20028;-61
2022/02/08 01:27:17;;;;;;;6.93;2.00;;;7.40;57.60;;;;;;5113092;28;20035;-62
2022/02/08 01:37:41;;;;;;;9.10;2.15;;;7.30;57.60;;;;;;5100457;28;20020;-62
2022/02/08 01:46:52;;;;;;;8.25;2.08;;;7.40;57.50;;;;;;5109513;28;20092;-62
2022/02/08 01:48:59;;;;;;;13.23;3.03;;;7.30;57.50;;;;;;5096915;28;20032;-62
2022/02/08 01:51:25;;;;;;;7.50;2.30;;;7.30;57.60;;;;;;5100677;28;20063;-62
2022/02/08 01:53:51;;;;;;;13.70;2.75;;;7.40;57.70;;;;;;5105883;28;20078;-62
2022/02/08 01:56:17;;;;;;;9.80;2.70;;;7.30;57.70;;;;;;5099338;28;20040;-62
2022/02/08 01:58:43;;;;;;;9.88;2.58;;;7.30;57.90;;;;;;5111896;28;20435;-61
2022/02/08 02:01:09;;;;;;;11.57;2.25;;;7.30;58.10;;;;;;5106604;28;20061;-62
2022/02/08 02:03:35;;;;;;;9.10;2.33;;;7.40;58.10;;;;;;5106310;27;20120;-63
2022/02/08 02:06:01;;;;;;;10.40;2.58;;;7.50;58.00;;;;;;5098384;28;20020;-62
2022/02/08 02:08:27;;;;;;;8.00;2.20;;;7.40;58.30;;;;;;5098195;28;20085;-61
2022/02/08 02:10:53;;;;;;;7.43;2.10;;;7.40;58.60;;;;;;5106341;28;20028;-61
2022/02/08 02:13:41;;;;;;;10.90;2.55;;;7.40;58.90;;;;;;5113246;28;20178;-62
2022/02/08 02:16:08;;;;;;;8.38;2.53;;;7.30;59.20;;;;;;5100994;28;20027;-62
2022/02/08 02:18:34;;;;;;;9.65;2.78;;;7.20;59.80;;;;;;5114637;28;20077;-62
2022/02/08 02:21:02;;;;;;;9.32;2.60;;;7.20;60.10;;;;;;5102376;28;20425;-62
2022/02/08 02:23:29;;;;;;;7.90;2.38;;;7.20;60.40;;;;;;5100173;28;20024;-62
2022/02/08 02:25:54;;;;;;;7.25;2.70;;;7.20;60.40;;;;;;5099342;28;20036;-61
2022/02/08 02:28:20;;;;;;;6.50;2.55;;;7.20;60.50;;;;;;5110075;28;20055;-63
2022/02/08 02:30:46;;;;;;;10.90;2.83;;;7.20;60.50;;;;;;5108095;28;20126;-61
2022/02/08 02:33:12;;;;;;;12.80;2.47;;;7.20;60.70;;;;;;5109450;28;20407;-61
2022/02/08 02:35:38;;;;;;;11.25;2.67;;;7.20;60.90;;;;;;5105781;28;20038;-62
2022/02/08 02:38:05;;;;;;;10.32;2.67;;;7.10;60.80;;;;;;5107041;28;20110;-62
2022/02/08 02:40:31;;;;;;;10.77;2.53;;;7.00;60.90;;;;;;5105787;28;20518;-62
2022/02/08 02:42:58;;;;;;;12.20;3.00;;;7.10;60.90;;;;;;5112223;28;20062;-62
2022/02/08 02:45:23;;;;;;;7.82;2.42;;;7.10;61.00;;;;;;5108173;28;20471;-62
2022/02/08 02:47:52;;;;;;;8.52;2.70;;;7.10;61.00;;;;;;5107134;28;20081;-61
2022/02/08 02:50:21;;;;;;;7.55;2.50;;;7.10;61.30;;;;;;5110658;28;20028;-62
2022/02/08 02:52:47;;;;;;;7.28;2.47;;;7.10;61.20;;;;;;5103481;28;20036;-61
2022/02/08 02:55:15;;;;;;;9.15;2.60;;;7.20;61.20;;;;;;5101835;28;20034;-63
2022/02/08 02:57:43;;;;;;;11.18;2.45;;;7.10;61.30;;;;;;5106967;28;20490;-62
2022/02/08 03:00:12;;;;;;;7.30;2.20;;;7.10;61.80;;;;;;5103836;28;20035;-62
2022/02/08 03:05:20;;;;;;;6.63;2.20;;;7.10;62.30;;;;;;5105173;28;20299;-62
2022/02/08 03:18:44;;;;;;;7.50;2.33;;;7.10;63.40;;;;;;5105522;28;20066;-62
2022/02/08 03:21:11;;;;;;;6.22;1.98;;;7.20;63.10;;;;;;5110453;27;20055;-63
2022/02/08 03:23:37;;;;;;;6.35;2.13;;;7.20;63.00;;;;;;5114006;28;20051;-63
2022/02/08 03:26:03;;;;;;;5.65;2.30;;;7.10;63.10;;;;;;5120548;27;20024;-63
2022/02/08 03:28:30;;;;;;;7.43;2.50;;;7.10;63.10;;;;;;5105284;28;20028;-62
2022/02/08 03:30:56;;;;;;;7.35;1.83;;;7.00;63.10;;;;;;5101991;28;20465;-62
2022/02/08 03:33:24;;;;;;;6.28;2.10;;;7.00;63.40;;;;;;5114982;27;20040;-63
2022/02/08 03:35:53;;;;;;;6.00;2.20;;;6.90;63.40;;;;;;5106701;28;20028;-61
2022/02/08 03:38:25;;;;;;;6.63;2.30;;;7.00;63.50;;;;;;5101684;28;20024;-62
2022/02/08 03:40:52;;;;;;;6.78;2.90;;;6.90;63.40;;;;;;5110686;28;20123;-65
2022/02/08 03:45:52;;;;;;;9.75;2.60;;;7.00;62.90;;;;;;5105052;28;20035;-62
2022/02/08 03:48:20;;;;;;;21.70;2.85;;;7.00;62.60;;;;;;5106782;28;20027;-62
2022/02/08 03:50:51;;;;;;;8.52;2.47;;;7.00;62.10;;;;;;5105017;28;20491;-62
2022/02/08 03:53:17;;;;;;;8.20;2.85;;;7.10;62.10;;;;;;5113533;28;20051;-62
2022/02/08 03:55:44;;;;;;;7.10;2.13;;;7.10;61.90;;;;;;5115820;27;20062;-62
2022/02/08 03:58:10;;;;;;;7.30;2.60;;;7.10;61.70;;;;;;5111412;28;20023;-62
2022/02/08 04:00:48;;;;;;;6.32;2.05;;;7.10;61.40;;;;;;5112231;28;20088;-62
2022/02/08 04:03:13;;;;;;;6.80;2.35;;;7.00;61.40;;;;;;5109749;27;20141;-62
2022/02/08 04:05:43;;;;;;;4.68;1.90;;;7.00;61.50;;;;;;5114431;27;20153;-62
2022/02/08 04:08:12;;;;;;;6.28;2.70;;;6.90;61.80;;;;;;5101575;28;20077;-62
2022/02/08 04:10:39;;;;;;;6.22;2.03;;;6.90;61.90;;;;;;5116931;27;20461;-61
2022/02/08 04:13:14;;;;;;;6.10;2.78;;;6.90;61.60;;;;;;5107480;28;20058;-61
2022/02/08 04:16:01;;;;;;;7.70;2.33;;;6.90;61.50;;;;;;5118081;27;20473;-62
2022/02/08 04:43:01;;;;;;;10.18;2.50;;;6.70;61.90;;;;;;5097549;28;20058;-61
2022/02/08 04:50:22;;;;;;;8.23;2.42;;;6.70;61.90;;;;;;5099587;28;20026;-61
2022/02/08 04:52:49;;;;;;;10.48;2.78;;;6.70;62.00;;;;;;5099892;28;20034;-61
2022/02/08 04:58:09;;;;;;;7.63;2.35;;;6.60;61.90;;;;;;5109858;28;20038;-61
2022/02/08 05:00:45;;;;;;;9.23;2.53;;;6.60;62.10;;;;;;5107069;28;20088;-61
2022/02/08 05:43:59;;;;;;;8.30;2.40;;;6.50;61.00;;;;;;5112321;28;19908;-62
2022/02/08 05:49:03;;;;;;;10.20;2.67;;;6.40;60.60;;;;;;5112225;27;20114;-62
2022/02/08 05:52:22;;;;;;;8.10;2.38;;;6.50;60.60;;;;;;5102314;28;20397;-61
2022/02/08 05:54:15;;;;;;;6.50;2.00;;;6.50;60.30;;;;;;5093675;28;20032;-61
2022/02/08 05:56:40;;;;;;;8.10;2.50;;;6.40;59.90;;;;;;5094258;28;20028;-61
2022/02/08 05:59:08;;;;;;;10.55;2.60;;;6.40;59.90;;;;;;5120597;28;20062;-61
2022/02/08 06:01:35;;;;;;;8.23;2.75;;;6.40;59.80;;;;;;5106043;27;20024;-62
2022/02/08 06:04:01;;;;;;;7.32;2.50;;;6.40;59.60;;;;;;5113276;28;20474;-60
2022/02/08 06:06:29;;;;;;;8.77;2.40;;;6.40;59.50;;;;;;5114804;28;20073;-61
2022/02/08 06:08:55;;;;;;;7.63;2.75;;;6.40;59.20;;;;;;5111778;28;20020;-62
2022/02/08 06:11:23;;;;;;;7.20;2.40;;;6.40;59.10;;;;;;5112298;28;20238;-61
2022/02/08 06:13:51;;;;;;;8.73;2.13;;;6.50;58.60;;;;;;5100907;28;20043;-62
2022/02/08 06:16:18;;;;;;;6.40;2.13;;;6.50;58.60;;;;;;5102966;28;20073;-62
2022/02/08 06:18:45;;;;;;;7.93;2.67;;;6.50;58.00;;;;;;5119531;27;20035;-62
2022/02/08 06:21:11;;;;;;;7.63;2.65;;;6.50;58.00;;;;;;5114141;28;20046;-61
2022/02/08 06:23:37;;;;;;;8.85;2.85;;;6.50;57.90;;;;;;5118205;27;20027;-62
2022/02/08 06:26:03;;;;;;;9.35;2.40;;;6.50;57.50;;;;;;5101604;28;20028;-61
2022/02/08 06:28:28;;;;;;;9.68;2.20;;;6.50;57.40;;;;;;5113301;28;20032;-62
2022/02/08 06:30:54;;;;;;;8.90;2.70;;;6.60;57.00;;;;;;5099092;28;20529;-62
2022/02/08 06:33:21;;;;;;;13.73;2.60;;;6.50;56.80;;;;;;5118893;27;20032;-63
2022/02/08 06:35:47;;;;;;;9.70;2.58;;;6.50;56.70;;;;;;5095093;28;20110;-62
2022/02/08 06:38:15;;;;;;;13.45;2.95;;;6.60;56.50;;;;;;5102034;28;20120;-62
2022/02/08 06:40:42;;;;;;;10.18;2.92;;;6.50;56.60;;;;;;5105254;28;20024;-62
2022/02/08 06:43:09;;;;;;;9.48;2.78;;;6.50;56.60;;;;;;5120406;27;20148;-61
2022/02/08 06:45:35;;;;;;;11.80;3.08;;;6.50;57.00;;;;;;5111680;28;20026;-61
2022/02/08 06:48:03;;;;;;;10.18;2.70;;;6.40;57.20;;;;;;5107628;27;20027;-62
2022/02/08 06:50:30;;;;;;;15.13;2.88;;;6.50;58.10;;;;;;5103086;28;20031;-62
2022/02/08 06:52:55;;;;;;;98.72;8.23;;;6.50;57.60;;;;;;5109197;28;20042;-61
2022/02/08 06:55:24;;;;;;;14.05;3.03;;;6.40;58.00;;;;;;5095838;28;20497;-62
2022/02/08 06:57:52;;;;;;;13.07;3.17;;;6.50;58.10;;;;;;5106512;28;20038;-62
2022/02/08 07:00:23;;;;;;;13.45;3.28;;;6.50;59.30;;;;;;5101732;28;20027;-65
2022/02/08 07:02:50;;;;;;;13.00;3.25;;;6.50;59.60;;;;;;5101370;28;20149;-61
2022/02/08 07:05:16;;;;;;;10.02;3.13;;;6.50;60.00;;;;;;5108236;28;20024;-61
2022/02/08 07:07:42;;;;;;;15.23;3.58;;;6.50;60.20;;;;;;5104347;28;20024;-62
2022/02/08 07:10:08;;;;;;;19.50;3.60;;;6.50;60.60;;;;;;5098008;28;20077;-60
2022/02/08 07:12:34;;;;;;;12.85;3.40;;;6.50;61.10;;;;;;5105862;28;20059;-63
2022/02/08 07:15:07;;;;;;;14.63;3.15;;;6.50;60.90;;;;;;5097182;28;20513;-62
2022/02/08 07:17:33;;;;;;;18.73;3.67;;;6.60;60.80;;;;;;5098743;28;20538;-62
2022/02/08 07:19:58;;;;;;;13.85;3.40;;;6.70;60.80;;;;;;5106508;28;20115;-63
2022/02/08 07:22:24;;;;;;;11.10;3.65;;;6.80;60.70;;;;;;5109215;28;20031;-61
2022/02/08 07:24:50;;;;;;;12.23;3.60;;;6.70;60.60;;;;;;5102940;28;20027;-65
2022/02/08 07:27:16;;;;;;;14.82;3.33;;;6.80;60.50;;;;;;5106409;28;20584;-62
2022/02/08 07:29:50;;;;;;;14.95;3.78;;;6.90;60.30;;;;;;5097465;28;20450;-63
2022/02/08 07:32:16;;;;;;;10.75;3.25;;;7.00;60.10;;;;;;5111067;27;20038;-62
2022/02/08 07:34:47;;;;;;;14.35;3.10;;;7.10;59.90;;;;;;5113231;28;20111;-62
2022/02/08 07:37:21;;;;;;;13.00;4.85;;;7.20;59.70;;;;;;5112487;28;20028;-62
2022/02/08 07:39:53;;;;;;;13.55;3.25;;;7.90;59.70;;;;;;5111860;28;20023;-63
2022/02/08 07:42:19;;;;;;;16.42;4.63;;;8.80;55.70;;;;;;5107113;28;20491;-63
2022/02/08 07:44:46;;;;;;;17.52;6.47;;;8.80;55.50;;;;;;5107420;28;20198;-62
2022/02/08 07:47:12;;;;;;;15.82;7.45;;;11.00;54.10;;;;;;5112480;28;20023;-61
2022/02/08 07:49:40;;;;;;;26.50;7.53;;;13.70;49.40;;;;;;5109910;28;20023;-62
2022/02/08 07:52:07;;;;;;;12.68;6.22;;;16.10;45.20;;;;;;5112063;28;20462;-64
2022/02/08 07:54:52;;;;;;;16.60;5.82;;;17.60;38.60;;;;;;5111344;28;20027;-64
2022/02/08 07:57:17;;;;;;;17.67;6.07;;;18.40;35.80;;;;;;5110066;28;20030;-63
2022/02/08 07:59:43;;;;;;;15.25;6.05;;;19.00;35.50;;;;;;5110593;28;20382;-64
2022/02/08 08:02:10;;;;;;;12.60;5.90;;;19.80;33.80;;;;;;5114389;27;20031;-63
2022/02/08 08:04:35;;;;;;;9.25;5.38;;;20.30;33.00;;;;;;5107075;28;20027;-62
2022/02/08 08:07:01;;;;;;;10.32;5.00;;;20.90;31.40;;;;;;5113135;28;20023;-63
2022/02/08 08:09:27;;;;;;;13.80;5.80;;;20.90;30.20;;;;;;5109875;28;20050;-63
2022/02/08 08:11:53;;;;;;;11.50;4.20;;;20.40;31.00;;;;;;5111561;28;20374;-62
2022/02/08 08:22:21;;;;;;;10.82;3.25;;;14.00;38.90;;;;;;5465716;22;22742;-56
2022/02/08 08:24:47;;;;;;;10.38;3.60;;;12.70;41.80;;;;;;5008489;28;20151;-53
2022/02/08 08:27:14;;;;;;;10.98;3.65;;;11.70;43.70;;;;;;4997325;28;20120;-50
2022/02/08 08:29:41;;;;;;;11.00;3.20;;;11.20;45.10;;;;;;5007810;28;20041;-54
2022/02/08 08:32:08;;;;;;;14.07;3.45;;;10.90;45.80;;;;;;5007021;28;20029;-55
2022/02/08 08:34:35;;;;;;;13.75;3.40;;;10.70;46.30;;;;;;5009467;28;20096;-49
2022/02/08 08:37:02;;;;;;;14.02;3.13;;;10.30;47.20;;;;;;5013569;28;20026;-56
2022/02/08 08:39:36;;;;;;;15.77;3.38;;;9.90;48.10;;;;;;5004201;28;20051;-52
2022/02/08 08:50:04;;;;;;;12.93;3.60;;;9.00;50.60;;;;;;5017211;28;20139;-55
2022/02/08 08:52:41;;;;;;;10.38;3.38;;;8.80;50.60;;;;;;5019806;28;20091;-56
2022/02/08 08:55:07;;;;;;;12.45;3.25;;;8.70;50.60;;;;;;5014300;28;20041;-55
2022/02/08 08:57:33;;;;;;;10.80;3.40;;;8.70;50.60;;;;;;4997740;28;20424;-55
2022/02/08 09:00:00;;;;;;;11.10;3.53;;;8.70;51.00;;;;;;5013750;28;20022;-54
2022/02/08 09:02:26;;;;;;;13.88;3.15;;;8.70;51.00;;;;;;5012394;28;20360;-56
2022/02/08 09:04:54;;;;;;;10.77;3.08;;;8.70;50.50;;;;;;5021795;28;20037;-54
2022/02/08 09:07:20;;;;;;;8.57;2.80;;;8.70;50.60;;;;;;5004694;28;20030;-55
2022/02/08 09:09:50;;;;;;;11.80;2.92;;;8.70;51.00;;;;;;5011944;28;20030;-57
2022/02/08 09:12:20;;;;;;;14.43;3.17;;;8.70;51.10;;;;;;5003289;28;20530;-50
2022/02/08 09:15:52;;;;;;;20.58;4.25;;;8.70;50.80;;;;;;5005511;28;20046;-58
2022/02/08 09:18:14;;;;;;;12.30;3.67;;;8.90;50.40;;;;;;4994223;28;20439;-53
2022/02/08 09:31:03;;;;;;;15.20;2.88;;;9.10;49.80;;;;;;5011442;28;20041;-58
2022/02/08 09:33:29;;;;;;;11.70;3.33;;;9.20;49.60;;;;;;5002571;28;20370;-58
2022/02/08 09:35:57;;;;;;;13.45;3.70;;;9.30;49.40;;;;;;4998382;28;20034;-54
2022/02/08 09:38:24;;;;;;;10.73;2.97;;;9.40;49.00;;;;;;5013105;28;20066;-55
2022/02/08 09:40:50;;;;;;;14.40;2.97;;;9.30;49.20;;;;;;4996775;28;20041;-55
2022/02/08 09:43:18;;;;;;;12.27;2.70;;;9.30;49.30;;;;;;5013690;28;20032;-54
2022/02/08 09:45:49;;;;;;;11.85;2.67;;;9.10;49.60;;;;;;5001541;28;20049;-52
2022/02/08 09:48:26;;;;;;;10.35;2.72;;;9.10;49.90;;;;;;4995640;28;20103;-54
2022/02/08 09:50:52;;;;;;;13.82;2.72;;;9.10;49.60;;;;;;5003824;28;20034;-56
2022/02/08 09:53:24;;;;;;;8.50;2.78;;;9.00;49.80;;;;;;5011118;28;20487;-56
2022/02/08 09:55:50;;;;;;;10.45;2.67;;;9.10;49.60;;;;;;4999964;28;20040;-54
2022/02/08 09:58:16;;;;;;;15.57;3.42;;;9.00;49.50;;;;;;5011916;28;20420;-51
2022/02/08 10:00:42;;;;;;;16.15;3.40;;;9.20;49.50;;;;;;4996594;28;20033;-57
2022/02/08 10:03:13;;;;;;;14.38;3.15;;;9.10;49.30;;;;;;5010828;28;20450;-56
2022/02/08 10:05:50;;;;;;;12.75;2.53;;;9.20;49.10;;;;;;5013607;28;20072;-56
2022/02/08 10:08:16;;;;;;;13.98;3.30;;;9.20;48.70;;;;;;5010121;28;20029;-52
2022/02/08 10:10:43;;;;;;;14.85;2.85;;;9.10;49.40;;;;;;5016344;28;20053;-54
2022/02/08 10:19:43;;;;;;;9.43;2.40;;;9.00;49.40;;;;;;5010478;28;20033;-53
2022/02/08 10:22:10;;;;;;;38.28;4.28;;;9.10;49.10;;;;;;5010171;28;20025;-55
2022/02/08 10:24:37;;;;;;;10.80;2.40;;;9.00;48.90;;;;;;5021412;28;20049;-59
2022/02/08 10:27:20;;;;;;;10.07;2.35;;;9.10;49.10;;;;;;5012683;28;20196;-57
2022/02/08 10:30:11;;;;;;;8.05;2.20;;;8.90;49.50;;;;;;5012141;28;20028;-57
2022/02/08 10:38:07;;;;;;;13.60;2.58;;;9.00;49.40;;;;;;5012100;28;19932;-58
2022/02/08 10:40:41;;;;;;;8.55;2.40;;;9.00;49.20;;;;;;5010640;28;20468;-57
2022/02/08 10:43:08;;;;;;;11.35;3.03;;;9.10;49.40;;;;;;5013040;28;20034;-52
2022/02/08 10:45:40;;;;;;;12.75;2.60;;;9.10;49.60;;;;;;5003682;28;20029;-55
2022/02/08 10:48:22;;;;;;;14.80;2.23;;;9.10;49.50;;;;;;5021872;28;20053;-57
2022/02/08 10:50:55;;;;;;;10.23;2.70;;;9.00;49.20;;;;;;5012056;28;20143;-53
2022/02/08 10:53:24;;;;;;;;;;;9.00;49.30;;;;;;5002382;28;20365;-55
2022/02/08 10:56:06;;;;;;;9.10;2.15;;;9.10;49.00;;;;;;5000757;28;19912;-56
2022/02/08 10:58:38;;;;;;;9.00;2.63;;;9.10;48.80;;;;;;4999612;28;20071;-53
2022/02/08 11:01:12;;;;;;;10.38;2.15;;;9.10;49.00;;;;;;5031796;28;20459;-54
2022/02/08 11:09:02;;;;;;;11.18;2.28;;;9.10;49.20;;;;;;5028237;28;20076;-54
2022/02/08 11:16:52;;;;;;;8.20;2.15;;;9.10;49.20;;;;;;5012917;28;20026;-55
2022/02/08 11:19:36;;;;;;;12.27;2.20;;;9.30;48.90;;;;;;4991667;28;20040;-58
2022/02/08 11:22:11;;;;;;;;;;;9.30;49.30;;;;;;5009859;28;20049;-61
2022/02/08 11:24:51;;;;;;;7.30;2.42;;;9.30;49.00;;;;;;5000969;28;20308;-53
2022/02/08 11:27:19;;;;;;;8.65;2.50;;;9.50;48.80;;;;;;4998059;28;20088;-56
2022/02/08 11:30:00;;;;;;;9.00;3.53;;;9.50;49.00;;;;;;5010656;28;20424;-56
2022/02/08 11:32:42;;;;;;;12.68;3.00;;;9.70;48.90;;;;;;5006281;28;20155;-55
2022/02/08 11:49:45;;;;;;;13.07;2.50;;;9.90;49.50;;;;;;4995854;28;20443;-53
2022/02/08 11:52:24;;;;;;;9.57;2.38;;;9.90;49.70;;;;;;5004416;28;20030;-57
2022/02/08 12:02:50;;;;;;;11.93;2.45;;;9.90;51.50;;;;;;5006961;28;20041;-55
2022/02/08 12:07:47;;;;;;;12.30;2.33;;;9.90;52.10;;;;;;5015448;28;20049;-58
2022/02/08 12:10:57;;;;;;;11.77;2.20;;;9.90;52.00;;;;;;5005443;28;20026;-58
2022/02/08 12:32:33;;;;;;;8.20;2.78;;;10.60;50.00;;;;;;5013364;28;20040;-53
2022/02/08 13:01:57;;;;;;;9.68;2.60;;;10.50;49.50;;;;;;5027521;28;20101;-51
2022/02/08 14:02:00;;;;;;;;;;;10.90;49.10;;;;;;5006083;28;20072;-53
2022/02/08 14:05:49;;;;;;;7.60;2.40;;;10.90;49.40;;;;;;5011754;28;19972;-53
2022/02/08 14:07:29;;;;;;;9.05;2.60;;;11.00;49.00;;;;;;5000334;28;20038;-54
2022/02/08 14:30:29;;;;;;;10.10;1.90;;;10.60;50.10;;;;;;4984925;28;20065;-55
2022/02/08 14:49:25;;;;;;;8.68;1.80;;;10.30;50.20;;;;;;4975217;28;20496;-55
2022/02/08 15:10:50;;;;;;;10.63;1.65;;;10.40;49.90;;;;;;4965546;28;19914;-55
2022/02/08 15:13:18;;;;;;;4.97;1.52;;;10.50;49.70;;;;;;4970950;28;20034;-54
2022/02/08 15:16:03;;;;;;;4.10;1.83;;;10.40;49.80;;;;;;4970972;28;20086;-53
2022/02/08 15:18:32;;;;;;;5.82;1.65;;;10.40;50.00;;;;;;4953457;28;20505;-54
2022/02/08 15:20:59;;;;;;;5.97;1.40;;;10.40;50.40;;;;;;4971114;28;20058;-56
2022/02/08 15:23:26;;;;;;;8.10;2.00;;;10.40;50.10;;;;;;4971108;28;20055;-57
2022/02/08 15:25:55;;;;;;;12.20;2.10;;;10.40;50.10;;;;;;4955444;28;20027;-54
2022/02/08 15:28:23;;;;;;;11.93;1.65;;;10.40;50.40;;;;;;4971130;28;20043;-54
2022/02/08 15:31:08;;;;;;;5.68;2.10;;;10.30;50.50;;;;;;4955815;28;20066;-52
2022/02/08 15:33:33;;;;;;;6.28;2.42;;;10.30;50.40;;;;;;4962736;28;20125;-55
2022/02/08 15:35:59;;;;;;;7.80;2.25;;;10.30;50.80;;;;;;4969476;28;20122;-54
2022/02/08 15:38:31;;;;;;;8.60;2.28;;;10.20;50.40;;;;;;4951104;28;20054;-53
2022/02/08 15:40:58;;;;;;;4.78;1.60;;;10.20;50.60;;;;;;4965164;28;20034;-53
2022/02/08 15:43:24;;;;;;;6.95;2.17;;;10.20;51.20;;;;;;4994941;28;20042;-52
2022/02/08 15:45:58;;;;;;;6.88;2.28;;;10.10;51.80;;;;;;4994260;28;20109;-51
2022/02/08 15:48:26;;;;;;;4.22;1.65;;;10.00;52.40;;;;;;4991403;28;20036;-56
2022/02/08 15:51:04;;;;;;;7.88;2.97;;;10.00;53.30;;;;;;4991764;28;20034;-55
2022/02/08 16:07:02;;;;;;;6.32;1.60;;;10.40;51.20;;;;;;4997736;28;20033;-56
2022/02/08 16:18:24;;;;;;;5.20;1.95;;;10.30;51.60;;;;;;4995975;28;20026;-51
2022/02/08 16:27:10;;;;;;;6.78;2.30;;;10.20;52.10;;;;;;4928388;29;20034;-54
2022/02/08 16:51:05;;;;;;;7.55;2.28;;;10.20;54.20;;;;;;5007980;28;20084;-51
2022/02/08 16:53:21;;;;;;;5.13;1.80;;;10.20;54.30;;;;;;5006941;28;20461;-53
2022/02/08 16:56:03;;;;;;;5.63;2.35;;;10.30;54.40;;;;;;5016986;28;20026;-53
2022/02/08 16:58:48;;;;;;;8.70;2.90;;;10.30;54.50;;;;;;4996323;28;20502;-52
2022/02/08 17:01:18;;;;;;;6.13;1.92;;;10.30;54.50;;;;;;4995083;28;20038;-62
2022/02/08 17:03:48;;;;;;;5.95;1.80;;;10.30;54.30;;;;;;5008551;28;20424;-53
2022/02/08 17:06:17;;;;;;;6.13;1.70;;;10.30;54.30;;;;;;5018159;28;20041;-60
2022/02/08 17:08:44;;;;;;;4.80;2.05;;;10.30;54.20;;;;;;5001025;28;20029;-57
2022/02/08 17:11:15;;;;;;;5.22;2.10;;;10.30;54.30;;;;;;5012701;28;20025;-52
2022/02/08 17:46:20;;;;;;;5.70;2.00;;;10.10;56.40;;;;;;4998905;28;19916;-52
2022/02/08 17:48:47;;;;;;;7.30;1.85;;;10.10;56.40;;;;;;5012330;28;20122;-56
2022/02/08 17:51:13;;;;;;;8.07;2.03;;;10.10;56.70;;;;;;4986124;28;20026;-52
2022/02/08 17:53:39;;;;;;;5.80;1.83;;;10.10;56.70;;;;;;4995632;28;20534;-53
2022/02/08 17:56:05;;;;;;;5.82;2.70;;;10.10;56.70;;;;;;5005093;28;20495;-49
2022/02/08 17:58:33;;;;;;;5.43;2.10;;;10.10;56.80;;;;;;5024731;28;20103;-51
2022/02/08 18:01:00;;;;;;;6.10;1.98;;;10.10;57.00;;;;;;5005652;28;20372;-52
2022/02/08 18:03:26;;;;;;;4.82;1.73;;;10.10;57.10;;;;;;5003874;28;20029;-52
2022/02/08 18:05:52;;;;;;;7.47;2.08;;;10.10;57.50;;;;;;5008560;28;20026;-54
2022/02/08 18:08:20;;;;;;;4.22;1.60;;;10.00;57.90;;;;;;5004384;28;20022;-52
2022/02/08 18:10:54;;;;;;;7.63;1.70;;;10.00;58.60;;;;;;5025853;28;20128;-56
2022/02/08 18:13:20;;;;;;;5.20;1.67;;;10.00;58.60;;;;;;5000542;28;20121;-60
2022/02/08 18:15:46;;;;;;;5.47;1.73;;;10.00;58.70;;;;;;5004419;28;20542;-52
2022/02/08 18:18:30;;;;;;;8.00;1.85;;;10.00;58.80;;;;;;5014089;28;20065;-52
2022/02/08 18:21:10;;;;;;;5.15;1.90;;;9.90;59.40;;;;;;5000517;28;20125;-52
2022/02/08 18:23:49;;;;;;;6.45;1.98;;;9.90;59.60;;;;;;5020882;28;20072;-52
2022/02/08 19:09:47;;;;;;;7.95;2.42;;;9.80;59.90;;;;;;5025019;28;20462;-57
2022/02/08 19:12:28;;;;;;;8.48;2.78;;;9.80;59.70;;;;;;5013880;28;20061;-54
2022/02/08 19:17:45;;;;;;;;;;;9.90;59.50;;;;;;5022044;28;20084;-54
2022/02/08 19:20:23;;;;;;;7.47;2.70;;;9.80;59.50;;;;;;5005760;28;19913;-55
2022/02/08 19:22:49;;;;;;;7.45;2.53;;;9.90;59.40;;;;;;5005892;28;20118;-53
2022/02/08 19:25:15;;;;;;;9.23;2.35;;;9.90;59.40;;;;;;5000205;28;20121;-51
2022/02/08 19:27:43;;;;;;;10.25;2.58;;;9.90;59.40;;;;;;4994231;28;20112;-52
2022/02/08 19:30:09;;;;;;;7.38;2.10;;;10.00;59.50;;;;;;5015575;28;20026;-53
2022/02/08 19:32:35;;;;;;;4.43;2.45;;;9.90;59.60;;;;;;5001176;28;20029;-57
2022/02/08 19:35:03;;;;;;;7.15;2.45;;;10.00;59.70;;;;;;5022059;28;20026;-55
2022/02/08 19:37:29;;;;;;;6.32;2.50;;;10.00;59.90;;;;;;5021570;28;20056;-56
2022/02/08 19:39:55;;;;;;;7.78;2.60;;;10.00;60.60;;;;;;4981242;28;20025;-54
2022/02/08 19:42:21;;;;;;;7.20;2.72;;;10.00;60.10;;;;;;5000853;28;20032;-55
2022/02/08 19:44:54;;;;;;;5.55;2.00;;;10.10;60.00;;;;;;5016164;28;20498;-56
2022/02/08 19:47:20;;;;;;;3.80;2.10;;;10.10;60.10;;;;;;5002095;28;20452;-55
2022/02/08 19:49:46;;;;;;;4.97;2.00;;;10.00;60.50;;;;;;5012654;28;20264;-54
2022/02/08 19:52:12;;;;;;;9.85;4.10;;;10.00;60.60;;;;;;5011956;28;20025;-56
2022/02/08 19:54:51;;;;;;;5.90;2.33;;;10.00;61.00;;;;;;5010454;28;20046;-52
2022/02/08 19:57:24;;;;;;;11.85;2.38;;;10.00;61.00;;;;;;4996043;28;20093;-57
2022/02/08 19:59:51;;;;;;;5.68;2.28;;;10.00;61.00;;;;;;5017725;28;20021;-55
2022/02/08 20:02:18;;;;;;;5.32;2.00;;;10.00;61.00;;;;;;4998224;28;20037;-57
2022/02/08 20:04:47;;;;;;;3.80;2.15;;;10.00;61.00;;;;;;5019780;28;20132;-53
2022/02/08 20:07:14;;;;;;;6.95;2.42;;;10.00;61.20;;;;;;5013295;28;20034;-54
2022/02/08 20:09:40;;;;;;;7.75;3.08;;;10.00;61.30;;;;;;5007656;28;20026;-54
2022/02/08 20:12:06;;;;;;;4.63;2.00;;;10.00;61.30;;;;;;5026757;28;20385;-55
2022/02/08 20:14:32;;;;;;;5.90;2.17;;;10.00;61.30;;;;;;5014366;28;20030;-54
2022/02/08 20:16:58;;;;;;;5.95;2.10;;;10.00;61.30;;;;;;4999309;28;20388;-55
2022/02/08 20:19:25;;;;;;;6.38;2.67;;;10.10;61.30;;;;;;4996912;28;20022;-56
2022/02/08 20:22:00;;;;;;;5.65;2.15;;;10.10;61.20;;;;;;5002898;28;20030;-56
2022/02/08 20:24:25;;;;;;;7.18;2.20;;;10.20;61.10;;;;;;5001840;28;20049;-57
2022/02/08 20:27:45;;;;;;;7.95;2.28;;;10.20;61.10;;;;;;5001490;28;20083;-49
2022/02/08 20:29:40;;;;;;;6.93;2.30;;;10.10;61.20;;;;;;5011570;28;20037;-50
2022/02/08 20:32:06;;;;;;;5.38;2.90;;;10.10;61.30;;;;;;5005512;28;20033;-56
2022/02/08 20:34:39;;;;;;;5.85;2.38;;;10.10;61.40;;;;;;5031531;28;20025;-60
2022/02/08 20:37:06;;;;;;;4.03;1.88;;;10.10;61.40;;;;;;5013084;28;20060;-54
2022/02/08 20:39:32;;;;;;;7.22;2.30;;;10.10;61.40;;;;;;5028979;28;20037;-58
2022/02/08 20:42:01;;;;;;;5.95;2.35;;;10.10;61.60;;;;;;5001410;28;20030;-54
2022/02/08 20:44:28;;;;;;;3.42;1.77;;;10.00;61.70;;;;;;4979173;28;20026;-55
2022/02/08 20:47:02;;;;;;;5.75;2.20;;;10.00;61.60;;;;;;5005780;28;20044;-55
2022/02/08 20:49:27;;;;;;;9.27;2.50;;;10.00;61.70;;;;;;5016906;28;20106;-54
2022/02/08 20:51:53;;;;;;;6.00;2.13;;;10.00;61.70;;;;;;5002552;28;20057;-58
2022/02/08 20:54:25;;;;;;;4.20;2.10;;;9.90;61.70;;;;;;5013569;28;20026;-53